createdAt,value
2017-03-03T00:00:19.059Z,23.68
2017-03-03T00:01:19.014Z,23.69
2017-03-03T00:02:18.773Z,23.61
2017-03-03T00:03:19.027Z,23.65
2017-03-03T00:04:19.091Z,23.8
2017-03-03T00:05:19.042Z,23.66
2017-03-03T00:06:19.160Z,23.69
2017-03-03T00:07:19.062Z,23.65
2017-03-03T00:08:19.063Z,23.72
2017-03-03T00:09:19.130Z,23.73
2017-03-03T00:10:19.189Z,23.61
2017-03-03T00:11:19.208Z,23.69
2017-03-03T00:12:18.695Z,23.76
2017-03-03T00:13:18.348Z,23.7
2017-03-03T00:14:19.227Z,23.72
2017-03-03T00:15:19.217Z,23.75
2017-03-03T00:16:18.919Z,23.76
2017-03-03T00:17:19.183Z,23.78
2017-03-03T00:18:19.210Z,23.68
2017-03-03T00:19:19.141Z,23.61
2017-03-03T00:20:19.240Z,23.54
2017-03-03T00:21:19.149Z,23.54
2017-03-03T00:22:19.202Z,23.43
2017-03-03T00:23:19.207Z,23.46
2017-03-03T00:24:19.232Z,23.39
2017-03-03T00:25:19.231Z,23.39
2017-03-03T00:26:19.234Z,23.4
2017-03-03T00:27:19.185Z,23.38
2017-03-03T00:28:19.245Z,23.46
2017-03-03T00:29:18.912Z,23.46
2017-03-03T00:30:19.260Z,23.39
2017-03-03T00:31:18.913Z,23.38
2017-03-03T00:32:19.271Z,23.32
2017-03-03T00:33:19.225Z,23.39
2017-03-03T00:34:19.240Z,23.38
2017-03-03T00:35:19.238Z,23.33
2017-03-03T00:36:19.292Z,23.33
2017-03-03T00:37:19.359Z,23.39
2017-03-03T00:38:19.311Z,23.33
2017-03-03T00:39:19.287Z,23.32
2017-03-03T00:40:19.332Z,23.32
2017-03-03T00:41:19.684Z,23.4
2017-03-03T00:42:19.347Z,23.39
2017-03-03T00:43:19.368Z,23.32
2017-03-03T00:44:19.398Z,23.32
2017-03-03T00:45:19.414Z,23.35
2017-03-03T00:46:19.374Z,23.32
2017-03-03T00:47:19.073Z,23.42
2017-03-03T00:48:19.978Z,23.42
2017-03-03T00:49:19.334Z,23.39
2017-03-03T00:50:19.437Z,23.39
2017-03-03T00:51:20.197Z,23.42
2017-03-03T00:52:19.426Z,23.36
2017-03-03T00:53:19.367Z,23.42
2017-03-03T00:54:19.423Z,23.51
2017-03-03T00:55:19.531Z,23.55
2017-03-03T00:56:18.981Z,23.5
2017-03-03T00:57:19.401Z,23.54
2017-03-03T00:58:19.451Z,23.55
2017-03-03T00:59:19.410Z,23.6
2017-03-03T01:00:19.503Z,23.61
2017-03-03T01:01:19.464Z,23.66
2017-03-03T01:02:19.617Z,23.57
2017-03-03T01:03:19.491Z,23.65
2017-03-03T01:04:19.486Z,23.61
2017-03-03T01:05:19.435Z,23.63
2017-03-03T01:06:19.578Z,23.72
2017-03-03T01:07:19.053Z,23.72
2017-03-03T01:08:19.122Z,23.68
2017-03-03T01:09:19.532Z,23.73
2017-03-03T01:10:19.535Z,23.7
2017-03-03T01:11:19.530Z,23.66
2017-03-03T01:12:19.432Z,23.75
2017-03-03T01:16:34.938Z,23.73
2017-03-03T01:17:06.116Z,23.66
2017-03-03T01:18:06.061Z,23.66
2017-03-03T01:19:06.073Z,23.65
2017-03-03T01:20:06.025Z,23.54
2017-03-03T01:21:06.034Z,23.57
2017-03-03T01:22:05.893Z,23.57
2017-03-03T01:23:06.057Z,23.6
2017-03-03T01:24:07.020Z,23.51
2017-03-03T01:25:06.079Z,23.53
2017-03-03T01:26:06.727Z,23.55
2017-03-03T01:27:06.173Z,23.57
2017-03-03T01:28:06.125Z,23.55
2017-03-03T01:29:06.133Z,23.42
2017-03-03T01:30:05.751Z,23.43
2017-03-03T01:31:06.210Z,23.4
2017-03-03T01:32:06.200Z,23.43
2017-03-03T01:33:06.216Z,23.47
2017-03-03T01:34:05.722Z,23.48
2017-03-03T01:35:07.131Z,23.46
2017-03-03T01:36:05.731Z,23.51
2017-03-03T01:37:06.191Z,23.47
2017-03-03T01:38:05.802Z,23.47
2017-03-03T01:39:06.216Z,23.51
2017-03-03T01:40:06.171Z,23.54
2017-03-03T01:41:06.162Z,23.54
2017-03-03T01:42:05.816Z,23.55
2017-03-03T01:43:05.876Z,23.57
2017-03-03T01:44:07.326Z,23.57
2017-03-03T01:45:06.289Z,23.57
2017-03-03T01:46:06.443Z,23.6
2017-03-03T01:47:06.260Z,23.58
2017-03-03T01:48:05.855Z,23.61
2017-03-03T01:49:06.225Z,23.68
2017-03-03T01:50:05.875Z,23.61
2017-03-03T01:51:05.835Z,23.53
2017-03-03T01:52:05.897Z,23.61
2017-03-03T01:53:06.296Z,23.57
2017-03-03T01:54:06.244Z,23.66
2017-03-03T01:55:06.624Z,23.65
2017-03-03T01:56:07.480Z,23.63
2017-03-03T01:57:06.316Z,23.58
2017-03-03T01:58:06.281Z,23.58
2017-03-03T01:59:05.927Z,23.47
2017-03-03T02:00:06.347Z,23.54
2017-03-03T02:01:06.343Z,23.53
2017-03-03T02:02:06.310Z,23.51
2017-03-03T02:03:06.365Z,23.51
2017-03-03T02:04:06.367Z,23.51
2017-03-03T02:05:06.368Z,23.53
2017-03-03T02:06:06.439Z,23.5
2017-03-03T02:07:05.981Z,23.46
2017-03-03T02:08:06.388Z,23.5
2017-03-03T02:09:05.992Z,23.4
2017-03-03T02:10:07.263Z,23.39
2017-03-03T02:11:06.029Z,23.47
2017-03-03T02:12:06.014Z,23.48
2017-03-03T02:13:06.369Z,23.4
2017-03-03T02:14:06.376Z,23.5
2017-03-03T02:15:06.699Z,23.5
2017-03-03T02:16:05.993Z,23.43
2017-03-03T02:17:06.446Z,23.43
2017-03-03T02:18:06.509Z,23.33
2017-03-03T02:19:07.718Z,23.4
2017-03-03T02:20:06.112Z,23.48
2017-03-03T02:21:06.904Z,23.42
2017-03-03T02:22:06.479Z,23.4
2017-03-03T02:23:06.741Z,23.38
2017-03-03T02:24:06.441Z,23.42
2017-03-03T02:25:06.512Z,23.4
2017-03-03T02:26:06.468Z,23.39
2017-03-03T02:27:06.459Z,23.4
2017-03-03T02:28:06.119Z,23.43
2017-03-03T02:29:06.535Z,23.46
2017-03-03T02:30:07.280Z,23.43
2017-03-03T02:31:06.556Z,23.39
2017-03-03T02:32:06.548Z,23.4
2017-03-03T02:33:06.108Z,23.47
2017-03-03T02:34:06.110Z,23.36
2017-03-03T02:35:06.189Z,23.39
2017-03-03T02:36:05.723Z,23.38
2017-03-03T02:37:06.579Z,23.42
2017-03-03T02:38:06.540Z,23.48
2017-03-03T02:39:06.192Z,23.46
2017-03-03T02:40:06.162Z,23.38
2017-03-03T02:41:07.104Z,23.35
2017-03-03T02:42:06.221Z,23.4
2017-03-03T02:43:06.224Z,23.4
2017-03-03T02:44:06.639Z,23.39
2017-03-03T02:45:06.595Z,23.38
2017-03-03T02:46:06.597Z,23.43
2017-03-03T02:47:06.647Z,23.43
2017-03-03T02:48:06.651Z,23.38
2017-03-03T02:49:06.258Z,23.39
2017-03-03T02:50:06.678Z,23.4
2017-03-03T02:51:06.722Z,23.33
2017-03-03T02:52:06.880Z,23.36
2017-03-03T02:53:06.633Z,23.4
2017-03-03T02:54:06.637Z,23.39
2017-03-03T02:55:06.247Z,23.4
2017-03-03T02:56:06.703Z,23.36
2017-03-03T02:57:06.313Z,23.38
2017-03-03T02:58:06.387Z,23.36
2017-03-03T02:59:06.332Z,23.38
2017-03-03T03:00:06.690Z,23.33
2017-03-03T03:01:06.693Z,23.43
2017-03-03T03:02:06.398Z,23.4
2017-03-03T03:03:06.748Z,23.39
2017-03-03T03:04:06.306Z,23.42
2017-03-03T03:05:08.208Z,23.39
2017-03-03T03:06:06.814Z,23.4
2017-03-03T03:07:06.778Z,23.4
2017-03-03T03:08:06.785Z,23.4
2017-03-03T03:09:06.398Z,23.46
2017-03-03T03:10:06.361Z,23.42
2017-03-03T03:11:06.814Z,23.46
2017-03-03T03:12:06.370Z,23.53
2017-03-03T03:13:08.328Z,23.42
2017-03-03T03:14:06.823Z,23.39
2017-03-03T03:15:06.775Z,23.47
2017-03-03T03:16:07.887Z,23.53
2017-03-03T03:17:06.847Z,23.51
2017-03-03T03:18:06.866Z,23.55
2017-03-03T03:19:06.851Z,23.61
2017-03-03T03:20:06.911Z,23.48
2017-03-03T03:21:06.830Z,23.48
2017-03-03T03:22:06.822Z,23.51
2017-03-03T03:23:06.827Z,23.53
2017-03-03T03:24:06.943Z,23.51
2017-03-03T03:25:07.822Z,23.51
2017-03-03T03:26:06.854Z,23.54
2017-03-03T03:27:07.528Z,23.46
2017-03-03T03:28:06.917Z,23.57
2017-03-03T03:29:06.876Z,23.58
2017-03-03T03:30:06.987Z,23.55
2017-03-03T03:31:06.924Z,23.47
2017-03-03T03:32:06.534Z,23.51
2017-03-03T03:33:06.543Z,23.58
2017-03-03T03:34:06.909Z,23.53
2017-03-03T03:35:07.215Z,23.55
2017-03-03T03:36:07.555Z,23.5
2017-03-03T03:37:06.913Z,23.55
2017-03-03T03:38:07.171Z,23.61
2017-03-03T03:39:07.045Z,23.55
2017-03-03T03:40:07.004Z,23.53
2017-03-03T03:41:07.039Z,23.48
2017-03-03T03:42:06.997Z,23.55
2017-03-03T03:43:06.967Z,23.51
2017-03-03T03:45:15.791Z,23.55
2017-03-03T03:46:15.798Z,23.55
2017-03-03T03:47:15.874Z,23.51
2017-03-03T03:48:15.880Z,23.6
2017-03-03T03:49:16.721Z,23.61
2017-03-03T03:50:15.425Z,23.6
2017-03-03T03:51:15.942Z,23.57
2017-03-03T03:52:15.836Z,23.61
2017-03-03T03:53:15.846Z,23.54
2017-03-03T03:54:15.898Z,23.6
2017-03-03T03:55:15.908Z,23.55
2017-03-03T03:56:15.969Z,23.57
2017-03-03T03:57:15.885Z,23.6
2017-03-03T03:58:16.023Z,23.48
2017-03-03T03:59:15.541Z,23.57
2017-03-03T04:00:16.599Z,23.57
2017-03-03T04:01:15.999Z,23.51
2017-03-03T04:02:15.956Z,23.48
2017-03-03T04:03:15.613Z,23.58
2017-03-03T04:04:16.026Z,23.51
2017-03-03T04:05:15.571Z,23.58
2017-03-03T04:06:15.926Z,23.53
2017-03-03T04:07:15.987Z,23.47
2017-03-03T04:08:15.957Z,23.53
2017-03-03T04:09:15.957Z,23.55
2017-03-03T04:10:15.953Z,23.43
2017-03-03T04:11:16.259Z,23.4
2017-03-03T04:12:15.570Z,23.43
2017-03-03T04:13:15.979Z,23.42
2017-03-03T04:14:15.682Z,23.43
2017-03-03T04:15:16.094Z,23.39
2017-03-03T04:16:15.999Z,23.38
2017-03-03T04:17:15.649Z,23.33
2017-03-03T04:18:16.061Z,23.35
2017-03-03T04:19:16.112Z,23.32
2017-03-03T04:20:16.026Z,23.32
2017-03-03T04:21:16.072Z,23.32
2017-03-03T04:22:16.078Z,23.27
2017-03-03T04:23:15.650Z,23.22
2017-03-03T04:24:15.706Z,23.31
2017-03-03T04:25:15.712Z,23.33
2017-03-03T04:26:16.168Z,23.19
2017-03-03T04:27:15.677Z,23.33
2017-03-03T04:28:16.129Z,23.2
2017-03-03T04:29:15.730Z,23.31
2017-03-03T04:30:15.732Z,23.17
2017-03-03T04:31:15.760Z,23.25
2017-03-03T04:32:15.816Z,23.17
2017-03-03T04:33:17.140Z,23.19
2017-03-03T04:34:16.421Z,23.31
2017-03-03T04:35:16.916Z,23.22
2017-03-03T04:36:16.171Z,23.22
2017-03-03T04:37:16.177Z,23.2
2017-03-03T04:38:15.738Z,23.23
2017-03-03T04:39:16.200Z,23.17
2017-03-03T04:40:16.248Z,23.19
2017-03-03T04:41:16.216Z,23.22
2017-03-03T04:42:16.239Z,23.22
2017-03-03T04:43:16.212Z,23.15
2017-03-03T04:44:17.180Z,23.17
2017-03-03T04:45:15.839Z,23.16
2017-03-03T04:46:16.235Z,23.22
2017-03-03T04:47:15.862Z,23.19
2017-03-03T04:48:16.222Z,23.12
2017-03-03T04:49:16.206Z,23.17
2017-03-03T04:50:15.867Z,23.13
2017-03-03T04:51:16.288Z,23.22
2017-03-03T04:52:15.543Z,23.23
2017-03-03T04:53:16.276Z,23.22
2017-03-03T04:54:16.252Z,23.19
2017-03-03T04:55:16.541Z,23.17
2017-03-03T04:56:16.305Z,23.1
2017-03-03T04:57:15.656Z,23.1
2017-03-03T04:58:15.860Z,23.16
2017-03-03T04:59:16.267Z,23.16
2017-03-03T05:00:16.430Z,23.15
2017-03-03T05:01:15.902Z,23.22
2017-03-03T05:02:16.335Z,23.17
2017-03-03T05:03:16.404Z,23.22
2017-03-03T05:04:16.356Z,23.2
2017-03-03T05:05:15.904Z,23.19
2017-03-03T05:06:16.378Z,23.17
2017-03-03T05:07:16.313Z,23.1
2017-03-03T05:08:17.221Z,23.13
2017-03-03T05:09:16.376Z,23.22
2017-03-03T05:10:16.386Z,23.15
2017-03-03T05:11:16.420Z,23.15
2017-03-03T05:12:16.349Z,23.25
2017-03-03T05:13:16.412Z,23.15
2017-03-03T05:14:16.416Z,23.1
2017-03-03T05:15:16.027Z,23.16
2017-03-03T05:16:15.679Z,23.13
2017-03-03T05:17:16.438Z,23.19
2017-03-03T05:18:16.055Z,23.17
2017-03-03T05:19:17.217Z,23.17
2017-03-03T05:20:16.412Z,23.15
2017-03-03T05:21:16.502Z,23.15
2017-03-03T05:22:16.476Z,23.17
2017-03-03T05:23:16.022Z,23.07
2017-03-03T05:24:16.788Z,23.16
2017-03-03T05:25:16.451Z,23.13
2017-03-03T05:26:16.494Z,23.15
2017-03-03T05:27:16.510Z,23.15
2017-03-03T05:28:16.058Z,23.09
2017-03-03T05:29:16.559Z,23.07
2017-03-03T05:30:17.282Z,23.04
2017-03-03T05:31:16.639Z,22.97
2017-03-03T05:32:16.483Z,22.98
2017-03-03T05:33:16.148Z,23.04
2017-03-03T05:34:16.540Z,23.05
2017-03-03T05:35:16.549Z,23.05
2017-03-03T05:36:16.553Z,23.05
2017-03-03T05:37:16.590Z,23.04
2017-03-03T05:38:16.172Z,23.04
2017-03-03T05:39:19.981Z,23.01
2017-03-03T05:40:16.538Z,23
2017-03-03T05:41:16.800Z,22.94
2017-03-03T05:42:16.543Z,23.07
2017-03-03T05:43:16.267Z,23
2017-03-03T05:44:16.555Z,23.02
2017-03-03T05:45:16.669Z,22.97
2017-03-03T05:46:16.626Z,23.02
2017-03-03T05:47:16.626Z,23
2017-03-03T05:48:16.701Z,23.02
2017-03-03T05:49:16.646Z,23.04
2017-03-03T05:50:17.492Z,23.04
2017-03-03T05:51:16.669Z,23.04
2017-03-03T05:52:16.609Z,23.01
2017-03-03T05:53:16.665Z,22.95
2017-03-03T05:54:16.272Z,22.98
2017-03-03T05:55:16.276Z,23.07
2017-03-03T05:56:16.750Z,23.05
2017-03-03T05:57:16.685Z,23.02
2017-03-03T05:58:16.716Z,23.04
2017-03-03T05:59:16.350Z,23.12
2017-03-03T06:00:16.308Z,23.04
2017-03-03T06:01:17.315Z,23
2017-03-03T06:02:16.343Z,23.02
2017-03-03T06:03:18.770Z,23
2017-03-03T06:04:16.732Z,23.02
2017-03-03T06:05:16.701Z,23.07
2017-03-03T06:06:16.348Z,23.05
2017-03-03T06:07:16.756Z,23
2017-03-03T06:08:16.723Z,22.98
2017-03-03T06:09:16.812Z,22.98
2017-03-03T06:10:16.731Z,23.01
2017-03-03T06:11:16.782Z,23
2017-03-03T06:12:17.093Z,23.01
2017-03-03T06:13:16.890Z,23.09
2017-03-03T06:14:16.350Z,23.04
2017-03-03T06:15:16.818Z,23
2017-03-03T06:16:16.862Z,23.01
2017-03-03T06:17:16.369Z,23.02
2017-03-03T06:18:16.823Z,23.1
2017-03-03T06:19:16.877Z,23.09
2017-03-03T06:20:16.899Z,23.05
2017-03-03T06:21:16.795Z,23.02
2017-03-03T06:22:16.398Z,23.02
2017-03-03T06:23:16.820Z,23.05
2017-03-03T06:24:16.872Z,23.12
2017-03-03T06:25:16.469Z,23.17
2017-03-03T06:26:16.487Z,23.07
2017-03-03T06:27:16.935Z,23.15
2017-03-03T06:28:16.947Z,23.05
2017-03-03T06:29:16.903Z,23.17
2017-03-03T06:30:16.468Z,23.22
2017-03-03T06:31:16.552Z,23.15
2017-03-03T06:32:16.864Z,23.16
2017-03-03T06:33:16.868Z,23.16
2017-03-03T06:34:17.228Z,23.16
2017-03-03T06:35:16.884Z,23.16
2017-03-03T06:36:18.381Z,23.13
2017-03-03T06:37:16.543Z,23.19
2017-03-03T06:38:16.909Z,23.1
2017-03-03T06:39:16.964Z,23.13
2017-03-03T06:40:17.059Z,23.1
2017-03-03T06:41:16.633Z,23.17
2017-03-03T06:42:16.922Z,23.22
2017-03-03T06:43:16.934Z,23.19
2017-03-03T06:44:16.989Z,23.2
2017-03-03T06:45:16.991Z,23.19
2017-03-03T06:46:16.962Z,23.19
2017-03-03T06:47:18.229Z,23.22
2017-03-03T06:48:17.028Z,23.2
2017-03-03T06:49:17.045Z,23.16
2017-03-03T06:50:16.631Z,23.15
2017-03-03T06:51:16.990Z,23.15
2017-03-03T06:52:17.088Z,23.19
2017-03-03T06:53:17.046Z,23.25
2017-03-03T06:54:17.419Z,23.16
2017-03-03T06:55:17.076Z,23.2
2017-03-03T06:56:17.017Z,23.19
2017-03-03T06:57:17.072Z,23.22
2017-03-03T06:58:18.086Z,23.22
2017-03-03T06:59:17.079Z,23.23
2017-03-03T07:00:17.057Z,23.22
2017-03-03T07:01:17.173Z,23.22
2017-03-03T07:02:17.114Z,23.31
2017-03-03T07:03:17.066Z,23.17
2017-03-03T07:04:17.169Z,23.2
2017-03-03T07:05:16.725Z,23.32
2017-03-03T07:06:17.077Z,23.16
2017-03-03T07:07:18.091Z,23.22
2017-03-03T07:08:17.156Z,23.31
2017-03-03T07:09:17.800Z,23.22
2017-03-03T07:10:17.260Z,23.2
2017-03-03T07:11:17.115Z,23.33
2017-03-03T07:12:17.131Z,23.33
2017-03-03T07:13:16.785Z,23.36
2017-03-03T07:14:17.181Z,23.32
2017-03-03T07:15:17.136Z,23.33
2017-03-03T07:16:17.200Z,23.2
2017-03-03T07:17:17.149Z,23.17
2017-03-03T07:18:18.263Z,23.25
2017-03-03T07:19:17.220Z,23.19
2017-03-03T07:20:17.618Z,23.27
2017-03-03T07:21:16.838Z,23.22
2017-03-03T07:22:17.287Z,23.1
2017-03-03T07:23:17.195Z,23.23
2017-03-03T07:24:17.272Z,23.31
2017-03-03T07:25:16.904Z,23.16
2017-03-03T07:26:17.261Z,23.17
2017-03-03T07:27:17.318Z,23.13
2017-03-03T07:28:17.272Z,23.27
2017-03-03T07:29:18.045Z,23.25
2017-03-03T07:30:16.852Z,23.33
2017-03-03T07:31:17.843Z,23.39
2017-03-03T07:32:17.247Z,23.48
2017-03-03T07:33:16.579Z,23.48
2017-03-03T07:34:17.328Z,23.58
2017-03-03T07:35:16.870Z,23.8
2017-03-03T07:36:17.273Z,23.87
2017-03-03T07:37:17.337Z,24.06
2017-03-03T07:38:17.354Z,24.12
2017-03-03T07:39:17.244Z,24.37
2017-03-03T07:40:18.448Z,24.55
2017-03-03T07:41:17.007Z,24.78
2017-03-03T07:42:17.666Z,24.83
2017-03-03T07:43:16.925Z,24.95
2017-03-03T07:44:32.100Z,24.96
2017-03-03T07:45:17.332Z,25.14
2017-03-03T07:46:17.349Z,25.17
2017-03-03T07:47:17.346Z,25.14
2017-03-03T07:48:17.353Z,25.17
2017-03-03T07:49:17.038Z,25.25
2017-03-03T07:50:17.366Z,25.3
2017-03-03T07:51:18.174Z,25.36
2017-03-03T07:52:17.393Z,25.42
2017-03-03T07:53:17.297Z,25.45
2017-03-03T07:54:17.447Z,25.47
2017-03-03T07:55:17.117Z,25.46
2017-03-03T07:56:17.129Z,25.47
2017-03-03T07:57:17.465Z,25.57
2017-03-03T07:58:17.523Z,25.47
2017-03-03T07:59:17.438Z,25.6
2017-03-03T08:00:17.106Z,25.6
2017-03-03T08:01:17.494Z,25.47
2017-03-03T08:02:18.005Z,25.6
2017-03-03T08:03:17.119Z,25.55
2017-03-03T08:04:17.467Z,25.61
2017-03-03T08:05:17.573Z,25.6
2017-03-03T08:06:17.097Z,25.62
2017-03-03T08:07:17.097Z,25.64
2017-03-03T08:08:17.510Z,25.76
2017-03-03T08:09:17.515Z,25.73
2017-03-03T08:10:17.961Z,25.75
2017-03-03T08:11:17.568Z,25.82
2017-03-03T08:12:17.536Z,25.85
2017-03-03T08:13:18.084Z,25.88
2017-03-03T08:14:17.851Z,25.91
2017-03-03T08:15:17.921Z,25.9
2017-03-03T08:16:17.657Z,25.88
2017-03-03T08:17:17.625Z,25.82
2017-03-03T08:18:17.589Z,26.05
2017-03-03T08:19:17.583Z,26.07
2017-03-03T08:20:17.268Z,26.09
2017-03-03T08:21:17.670Z,26.1
2017-03-03T08:22:17.720Z,26.12
2017-03-03T08:23:17.675Z,26.07
2017-03-03T08:24:17.984Z,26.18
2017-03-03T08:25:16.841Z,26.18
2017-03-03T08:26:17.804Z,26.17
2017-03-03T08:27:17.705Z,26.25
2017-03-03T08:28:17.764Z,26.12
2017-03-03T08:29:17.675Z,26.07
2017-03-03T08:30:17.733Z,26.1
2017-03-03T08:31:17.350Z,26.12
2017-03-03T08:32:17.718Z,26.12
2017-03-03T08:33:17.371Z,26.13
2017-03-03T08:34:17.422Z,26.12
2017-03-03T08:35:18.180Z,26.15
2017-03-03T08:36:17.334Z,25.95
2017-03-03T08:37:17.792Z,25.95
2017-03-03T08:38:17.066Z,25.92
2017-03-03T08:39:17.808Z,25.83
2017-03-03T08:40:17.449Z,25.88
2017-03-03T08:41:17.827Z,25.94
2017-03-03T08:42:17.848Z,25.97
2017-03-03T08:43:17.466Z,26.05
2017-03-03T08:44:17.899Z,25.87
2017-03-03T08:45:17.809Z,25.99
2017-03-03T08:46:17.740Z,25.91
2017-03-03T08:47:17.876Z,25.87
2017-03-03T08:48:17.886Z,25.85
2017-03-03T08:49:17.555Z,25.83
2017-03-03T08:50:19.024Z,25.77
2017-03-03T08:51:17.871Z,25.91
2017-03-03T08:52:17.473Z,25.82
2017-03-03T08:53:17.977Z,25.88
2017-03-03T08:54:17.496Z,25.79
2017-03-03T08:55:17.995Z,25.94
2017-03-03T08:56:17.908Z,25.9
2017-03-03T08:57:17.961Z,25.9
2017-03-03T08:58:17.577Z,25.91
2017-03-03T08:59:17.942Z,25.88
2017-03-03T09:00:18.005Z,25.88
2017-03-03T09:01:17.194Z,25.99
2017-03-03T09:02:17.654Z,25.87
2017-03-03T09:03:18.009Z,25.87
2017-03-03T09:04:18.014Z,25.88
2017-03-03T09:05:18.022Z,25.87
2017-03-03T09:06:18.047Z,25.85
2017-03-03T09:07:17.991Z,25.87
2017-03-03T09:08:17.653Z,25.85
2017-03-03T09:09:18.057Z,25.87
2017-03-03T09:10:17.627Z,25.83
2017-03-03T09:11:18.034Z,26.05
2017-03-03T09:12:18.748Z,25.98
2017-03-03T09:13:18.094Z,26.18
2017-03-03T09:14:47.490Z,26.3
2017-03-03T09:15:18.180Z,26.23
2017-03-03T09:16:18.622Z,26.2
2017-03-03T09:17:18.072Z,26.15
2017-03-03T09:18:18.242Z,26.13
2017-03-03T09:19:18.101Z,26.09
2017-03-03T09:20:17.359Z,26.02
2017-03-03T09:21:19.211Z,26.18
2017-03-03T09:22:19.318Z,25.9
2017-03-03T09:23:18.438Z,25.83
2017-03-03T09:24:18.131Z,25.94
2017-03-03T09:25:18.199Z,26.01
2017-03-03T09:26:18.250Z,25.85
2017-03-03T09:27:17.920Z,25.95
2017-03-03T09:28:17.783Z,26.06
2017-03-03T09:29:18.230Z,26.1
2017-03-03T09:30:17.797Z,26.12
2017-03-03T09:31:18.247Z,26.13
2017-03-03T09:32:18.904Z,26.07
2017-03-03T09:33:18.271Z,26.05
2017-03-03T09:34:18.352Z,26.01
2017-03-03T09:35:17.938Z,26.1
2017-03-03T09:36:18.288Z,26.09
2017-03-03T09:37:18.243Z,26.01
2017-03-03T09:38:18.610Z,26.15
2017-03-03T09:39:18.265Z,25.87
2017-03-03T09:40:18.381Z,25.6
2017-03-03T09:41:18.852Z,25.36
2017-03-03T09:42:17.938Z,25.23
2017-03-03T09:43:18.595Z,25.2
2017-03-03T09:44:17.932Z,25.18
2017-03-03T09:45:18.368Z,25.23
2017-03-03T09:46:18.366Z,25.18
2017-03-03T09:47:18.372Z,25.24
2017-03-03T09:48:17.985Z,25.5
2017-03-03T09:49:18.393Z,25.32
2017-03-03T09:50:18.400Z,25.24
2017-03-03T09:51:18.443Z,25.21
2017-03-03T09:52:18.803Z,25.27
2017-03-03T09:53:19.620Z,25.18
2017-03-03T09:54:18.881Z,25.15
2017-03-03T09:55:18.467Z,25.1
2017-03-03T09:56:18.394Z,25.23
2017-03-03T09:57:18.002Z,25.23
2017-03-03T09:58:18.411Z,25.2
2017-03-03T09:59:18.170Z,25.25
2017-03-03T10:00:18.077Z,25.23
2017-03-03T10:01:18.538Z,25.13
2017-03-03T10:02:18.140Z,25.05
2017-03-03T10:03:19.463Z,25
2017-03-03T10:04:18.861Z,25.06
2017-03-03T10:05:19.219Z,25.1
2017-03-03T10:06:18.517Z,25.08
2017-03-03T10:07:18.380Z,25.1
2017-03-03T10:08:18.635Z,25.17
2017-03-03T10:09:18.209Z,25.09
2017-03-03T10:10:18.506Z,25.06
2017-03-03T10:11:18.509Z,25.05
2017-03-03T10:12:18.564Z,25.09
2017-03-03T10:13:18.538Z,25.2
2017-03-03T10:14:19.282Z,25.08
2017-03-03T10:15:18.643Z,25.18
2017-03-03T10:16:18.462Z,25.15
2017-03-03T10:17:18.867Z,25.14
2017-03-03T10:18:18.661Z,25.2
2017-03-03T10:19:18.572Z,25.08
2017-03-03T10:20:18.732Z,25.17
2017-03-03T10:21:18.245Z,25.08
2017-03-03T10:22:18.592Z,25.18
2017-03-03T10:23:18.598Z,25.17
2017-03-03T10:24:18.221Z,25.13
2017-03-03T10:25:19.788Z,25.24
2017-03-03T10:26:18.697Z,25.21
2017-03-03T10:27:18.980Z,25.14
2017-03-03T10:28:18.750Z,25.24
2017-03-03T10:29:18.674Z,25.13
2017-03-03T10:30:18.760Z,25.15
2017-03-03T10:31:18.709Z,25.15
2017-03-03T10:32:18.371Z,25.21
2017-03-03T10:33:18.776Z,25.28
2017-03-03T10:34:18.682Z,25.18
2017-03-03T10:35:18.741Z,25.14
2017-03-03T10:36:19.607Z,25
2017-03-03T10:37:18.315Z,25
2017-03-03T10:38:18.828Z,25
2017-03-03T10:39:18.422Z,25.08
2017-03-03T10:40:18.839Z,24.98
2017-03-03T10:41:18.444Z,25.06
2017-03-03T10:42:18.796Z,25.08
2017-03-03T10:43:18.352Z,24.99
2017-03-03T10:44:18.771Z,24.98
2017-03-03T10:45:18.867Z,25.1
2017-03-03T10:46:18.835Z,25.13
2017-03-03T10:47:19.512Z,25.13
2017-03-03T10:48:18.864Z,25.15
2017-03-03T10:49:18.847Z,25.03
2017-03-03T10:50:18.871Z,25.08
2017-03-03T10:51:18.438Z,25.13
2017-03-03T10:52:18.890Z,25.09
2017-03-03T10:53:18.882Z,25.05
2017-03-03T10:54:18.503Z,25.06
2017-03-03T10:55:18.844Z,25.08
2017-03-03T10:56:18.915Z,25.13
2017-03-03T10:57:18.866Z,25.14
2017-03-03T10:58:19.224Z,25.1
2017-03-03T10:59:18.927Z,25.05
2017-03-03T11:00:18.486Z,25.09
2017-03-03T11:01:18.949Z,25.09
2017-03-03T11:02:19.521Z,25.1
2017-03-03T11:03:18.509Z,25.02
2017-03-03T11:04:18.965Z,25.17
2017-03-03T11:05:18.927Z,25.13
2017-03-03T11:06:18.878Z,25.03
2017-03-03T11:07:19.086Z,25
2017-03-03T11:08:19.043Z,25.13
2017-03-03T11:09:18.998Z,25.03
2017-03-03T11:10:19.023Z,24.99
2017-03-03T11:11:19.019Z,24.93
2017-03-03T11:12:19.034Z,24.91
2017-03-03T11:13:20.034Z,24.87
2017-03-03T11:14:20.905Z,24.98
2017-03-03T11:15:19.050Z,24.95
2017-03-03T11:16:19.060Z,24.96
2017-03-03T11:17:19.016Z,24.9
2017-03-03T11:18:18.632Z,24.85
2017-03-03T11:19:18.683Z,24.87
2017-03-03T11:20:19.504Z,24.95
2017-03-03T11:21:18.675Z,24.88
2017-03-03T11:22:20.643Z,24.87
2017-03-03T11:23:19.070Z,24.96
2017-03-03T11:24:19.920Z,24.93
2017-03-03T11:25:19.127Z,24.9
2017-03-03T11:26:18.759Z,24.84
2017-03-03T11:27:19.404Z,24.93
2017-03-03T11:28:19.161Z,24.99
2017-03-03T11:29:19.116Z,25
2017-03-03T11:30:18.718Z,25.06
2017-03-03T11:31:19.137Z,25.03
2017-03-03T11:32:18.757Z,25.08
2017-03-03T11:33:20.402Z,25.05
2017-03-03T11:34:18.811Z,25.05
2017-03-03T11:35:19.803Z,25.17
2017-03-03T11:36:18.783Z,25.08
2017-03-03T11:37:18.779Z,25.15
2017-03-03T11:38:19.226Z,25.1
2017-03-03T11:39:19.291Z,25.1
2017-03-03T11:40:19.199Z,25.06
2017-03-03T11:41:18.903Z,25.06
2017-03-03T11:42:18.820Z,25.15
2017-03-03T11:43:20.569Z,25.05
2017-03-03T11:44:20.328Z,24.91
2017-03-03T11:45:18.834Z,24.87
2017-03-03T11:46:19.536Z,24.96
2017-03-03T11:47:18.867Z,24.95
2017-03-03T11:48:18.488Z,24.91
2017-03-03T11:49:18.581Z,24.96
2017-03-03T11:50:18.941Z,24.88
2017-03-03T11:51:18.933Z,24.95
2017-03-03T11:52:18.887Z,24.91
2017-03-03T11:53:19.296Z,24.8
2017-03-03T11:54:19.312Z,24.93
2017-03-03T11:55:22.188Z,24.9
2017-03-03T11:56:19.378Z,24.83
2017-03-03T11:57:19.384Z,24.98
2017-03-03T11:58:19.355Z,24.93
2017-03-03T11:59:18.591Z,24.96
2017-03-03T12:00:19.408Z,24.85
2017-03-03T12:01:19.008Z,24.84
2017-03-03T12:02:19.425Z,24.81
2017-03-03T12:03:19.674Z,24.88
2017-03-03T12:04:19.378Z,24.83
2017-03-03T12:05:20.009Z,24.88
2017-03-03T12:06:20.351Z,24.88
2017-03-03T12:07:19.415Z,24.81
2017-03-03T12:08:19.765Z,24.76
2017-03-03T12:09:19.427Z,24.71
2017-03-03T12:10:19.448Z,24.83
2017-03-03T12:11:19.085Z,24.83
2017-03-03T12:12:19.096Z,24.84
2017-03-03T12:13:20.200Z,24.8
2017-03-03T12:14:19.564Z,24.71
2017-03-03T12:15:19.466Z,24.8
2017-03-03T12:16:19.073Z,24.71
2017-03-03T12:17:20.442Z,24.68
2017-03-03T12:18:19.502Z,24.69
2017-03-03T12:19:19.373Z,24.64
2017-03-03T12:20:19.102Z,24.64
2017-03-03T12:21:19.128Z,24.69
2017-03-03T12:22:19.180Z,24.62
2017-03-03T12:23:19.527Z,24.69
2017-03-03T12:24:19.192Z,24.77
2017-03-03T12:25:19.225Z,24.73
2017-03-03T12:26:19.646Z,24.68
2017-03-03T12:27:19.259Z,24.68
2017-03-03T12:28:20.531Z,24.69
2017-03-03T12:29:19.634Z,24.73
2017-03-03T12:30:19.630Z,24.73
2017-03-03T12:31:19.647Z,24.8
2017-03-03T12:32:19.594Z,24.71
2017-03-03T12:33:19.602Z,24.65
2017-03-03T12:34:19.669Z,24.62
2017-03-03T12:35:19.622Z,24.77
2017-03-03T12:36:19.677Z,24.73
2017-03-03T12:37:19.634Z,24.68
2017-03-03T12:38:19.645Z,24.67
2017-03-03T12:39:20.353Z,24.67
2017-03-03T12:40:19.309Z,24.68
2017-03-03T12:41:19.711Z,24.6
2017-03-03T12:42:19.341Z,24.58
2017-03-03T12:43:19.794Z,24.57
2017-03-03T12:44:19.388Z,24.53
2017-03-03T12:45:19.349Z,24.55
2017-03-03T12:46:19.368Z,24.55
2017-03-03T12:47:19.325Z,24.55
2017-03-03T12:48:19.399Z,24.55
2017-03-03T12:49:19.398Z,24.58
2017-03-03T12:50:20.440Z,24.58
2017-03-03T12:51:19.048Z,24.58
2017-03-03T12:52:19.745Z,24.65
2017-03-03T12:53:19.809Z,24.58
2017-03-03T12:54:19.771Z,24.46
2017-03-03T12:55:19.871Z,24.5
2017-03-03T12:56:19.846Z,24.49
2017-03-03T12:57:19.784Z,24.42
2017-03-03T12:58:19.910Z,24.49
2017-03-03T12:59:19.406Z,24.46
2017-03-03T13:00:19.831Z,24.45
2017-03-03T13:01:22.301Z,24.49